Terminal Aerodrome Forecast
Issued by NWS

Home | Current Version | Previous Version | Text Only | Print | Product List | Glossary On
Versions: 1 2 3 4 5 6 7 8 9 10 11 12 13
000
FTPQ31 PGUM 241730
TAFGUM
TAF

TAF
PTKK 241730Z 2418/2518 03008KT P6SM VCSH FEW018 SCT140
     FM250800 07008KT P6SM VCSH FEW018 SCT140=

USA.gov is the U.S. government's official web portal to all federal, state and local government web resources and services.